Thunder radar more information blitzortung!


Radar de pluja more information rain snow radar


Visita la nostra xarxa de llocs de meteo:

Template documentation
and downloads

And another site



No particular awareness of the weather is required.    There are no Weather-warnings

Pagina Historial Weather Underground text

Diari Resum Juliol 6, 2017 Unitats:  Imperial    Mètric   Tant
« Previous Dia
SegĂźent Dia »
Diari Setmana Mensual Anual Personalitzada
  Maxima: Minima: Media:
Temperatura: 93.7 °F 65.5 °F 80.6 °F
Punt de rosada: 64.4 °F 53.4 °F 59.9 °F
Humitat: 77 % 27 % 52 %
Wind Speed: 12.7 mph 0 mph 4.3 mph
RĂ fegues de vent: 12.7 mph - -
Vent:- - ESE
Pression baro: 30.1 in 30 in -
Precipitacions: 0 in    
Historical Graphs
 
 
Dades de taula per Juliol 6, 2017
Temps Temperatura Punt de rosada Pression baro Vent Wind Speed RĂ fegues de vent Humitat Rainfall Rate (Hourly)
00:01 70.5 °F 61.9 °F 30 in SW 2 mph 2 mph 74 % 0 in
00:05 66.4 °F 58.3 °F 30 in NE 2 mph 4 mph 75 % 0 in
00:06 70.2 °F 61.5 °F 30 in Calm     74 % 0 in
00:11 70.2 °F 61.9 °F 30 in NE 2 mph   75 % 0 in
00:15 66.6 °F 57.9 °F 30 in Calm   2 mph 74 % 0 in
00:25 65.7 °F 57.9 °F 30 in SSW 1 mph 4 mph 76 % 0 in
00:35 65.5 °F 57.7 °F 30 in SW 3 mph 3 mph 76 % 0 in
00:45 65.5 °F 58.1 °F 30 in Calm   3 mph 77 % 0 in
00:55 65.8 °F 58.5 °F 30 in NW 2 mph 3 mph 77 % 0 in
01:05 66 °F 58.3 °F 30 in Calm   2 mph 76 % 0 in
01:15 66 °F 58.6 °F 30 in North 1 mph 3 mph 77 % 0 in
01:25 65.7 °F 58.3 °F 30 in WNW 1 mph 2 mph 77 % 0 in
01:35 65.8 °F 58.5 °F 30 in SSW 2 mph 2 mph 77 % 0 in
01:45 66.2 °F 56.8 °F 30 in NE 3 mph 4 mph 72 % 0 in
01:55 66 °F 57.9 °F 30 in NNE 3 mph 4 mph 75 % 0 in
02:05 66 °F 57.9 °F 30 in West 1 mph 2 mph 75 % 0 in
02:15 65.8 °F 57.7 °F 30 in SW 2 mph 4 mph 75 % 0 in
02:25 66.4 °F 58.3 °F 30 in SW 2 mph 3 mph 75 % 0 in
02:35 66.7 °F 58.6 °F 30 in Calm   2 mph 75 % 0 in
02:45 67.1 °F 58.5 °F 30 in NNE 1 mph 2 mph 74 % 0 in
02:55 67.3 °F 58.3 °F 30 in WSW 1 mph 1 mph 73 % 0 in
03:05 67.6 °F 59.2 °F 30 in SW 1 mph 2 mph 74 % 0 in
03:15 68.2 °F 58.5 °F 30 in WSW 1 mph 1 mph 71 % 0 in
03:25 68.9 °F 59.2 °F 30 in West 2 mph 2 mph 71 % 0 in
03:35 69.6 °F 59.4 °F 30 in SW 1 mph 2 mph 70 % 0 in
03:45 70.9 °F 60.3 °F 30 in SW 1 mph 2 mph 69 % 0 in
03:55 72.1 °F 60.3 °F 30 in SW 2 mph 2 mph 66 % 0 in
04:05 73.4 °F 60.4 °F 30 in Calm   3 mph 64 % 0 in
04:15 74.3 °F 61 °F 30.1 in Calm   2 mph 63 % 0 in
04:25 75.9 °F 61.5 °F 30.1 in SW 1 mph 3 mph 61 % 0 in
04:35 76.3 °F 61.3 °F 30.1 in SW 1 mph 4 mph 60 % 0 in
04:45 77.7 °F 61.3 °F 30.1 in SW 1 mph 2 mph 57 % 0 in
04:55 79.5 °F 61.3 °F 30.1 in South 2 mph 4 mph 54 % 0 in
05:05 79.3 °F 60.6 °F 30.1 in SE 2 mph 4 mph 53 % 0 in
05:15 79.9 °F 61.2 °F 30.1 in SSE 1 mph 2 mph 53 % 0 in
05:25 81.5 °F 61.2 °F 30.1 in Calm   2 mph 50 % 0 in
05:35 81.5 °F 59.4 °F 30.1 in SSE 2 mph 4 mph 47 % 0 in
05:40 81.7 °F 59.5 °F 30.1 in SSE 1 mph 3 mph 47 % 0 in
10:40 82.2 °F 60.6 °F 30.1 in SE 2.3 mph   48 % 0 in
10:45 83.3 °F 61 °F 30 in East 3.5 mph 3.5 mph 47 % 0 in
10:50 82.9 °F 60.6 °F 30 in East 3.5 mph 3.5 mph 47 % 0 in
10:56 83.1 °F 61.3 °F 30.1 in WNW 2.3 mph 2.3 mph 48 % 0 in
11:02 83.5 °F 60.4 °F 30.1 in NE 2.3 mph 2.4 mph 46 % 0 in
11:05 84.2 °F 60.6 °F 30.1 in NNE 3.5 mph 3.5 mph 45 % 0 in
11:10 84.4 °F 60.6 °F 30.1 in NNW 2.3 mph 2.6 mph 45 % 0 in
11:13 84.6 °F 61 °F 30.1 in North 3.5 mph 3.5 mph 45 % 0 in
11:15 84.7 °F 61 °F 30.1 in NE 3.5 mph 3.5 mph 45 % 0 in
11:19 83.7 °F 60.6 °F 30.1 in WSW 3.5 mph 3.5 mph 46 % 0 in
11:20 83.7 °F 60.1 °F 30.1 in SW 2.6 mph 2.6 mph 45 % 0 in
11:23 84.7 °F 60.4 °F 30.1 in NNE 1.2 mph 1.2 mph 44 % 0 in
11:25 85.1 °F 60.6 °F 30.1 in ESE 3.6 mph 3.6 mph 44 % 0 in
11:28 84.9 °F 59.4 °F 30.1 in NNE 3.5 mph 3.5 mph 42 % 0 in
11:30 84.6 °F 58.8 °F 30.1 in NNW 3.5 mph 3.5 mph 42 % 0 in
11:31 84.6 °F 58.8 °F 30.1 in West 3.5 mph 3.5 mph 42 % 0 in
11:36 85.5 °F 59.7 °F 30.1 in NNE 4.6 mph 4.6 mph 42 % 0 in
11:41 85.3 °F 59.5 °F 30 in East 5.8 mph 5.8 mph 42 % 0 in
11:46 86 °F 58.8 °F 30 in SE 4.6 mph 4.6 mph 40 % 0 in
11:51 85.8 °F 58.6 °F 30 in NNE 5.8 mph 5.8 mph 40 % 0 in
11:56 86 °F 58.8 °F 30 in NNE 9.2 mph 9.2 mph 40 % 0 in
12:01 86.5 °F 58.6 °F 30 in NE 5.8 mph 5.8 mph 39 % 0 in
12:06 86.7 °F 58.1 °F 30 in ESE 5.8 mph 5.8 mph 38 % 0 in
12:11 87.1 °F 58.5 °F 30 in ENE 5.8 mph 5.8 mph 38 % 0 in
12:16 87.3 °F 57.7 °F 30 in NE 5.8 mph 5.8 mph 37 % 0 in
12:21 88.2 °F 58.6 °F 30 in West 2.3 mph 2.3 mph 37 % 0 in
12:26 88.9 °F 56.8 °F 30 in East 6 mph 6 mph 34 % 0 in
12:31 88.3 °F 57.2 °F 30 in NE 4.6 mph 4.6 mph 35 % 0 in
12:36 89.2 °F 57.9 °F 30 in ESE 3.6 mph 4.5 mph 35 % 0 in
12:41 89.8 °F 56.8 °F 30 in SE 2.3 mph 2.3 mph 33 % 0 in
12:46 89.8 °F 55.9 °F 30 in ENE 6.4 mph 6.4 mph 32 % 0 in
12:51 91 °F 58.8 °F 30 in SW 4.6 mph 4.6 mph 34 % 0 in
12:56 92.7 °F 57.6 °F 30 in ESE 4 mph 4 mph 31 % 0 in
13:01 90.5 °F 55.8 °F 30 in East 9.2 mph 9.2 mph 31 % 0 in
13:06 91.9 °F 56.1 °F 30 in East 7.4 mph 7.4 mph 30 % 0 in
13:11 91 °F 55.2 °F 30 in ESE 3.5 mph 3.5 mph 30 % 0 in
13:16 91.9 °F 55 °F 30 in SSE 5.8 mph 5.8 mph 29 % 0 in
13:21 91.6 °F 55.8 °F 30 in ESE 5.9 mph 5.9 mph 30 % 0 in
13:26 92.3 °F 56.5 °F 30 in North 4.6 mph 4.6 mph 30 % 0 in
13:31 92.5 °F 54.7 °F 30 in NE 5.8 mph 5.8 mph 28 % 0 in
13:36 92.7 °F 55.8 °F 30 in ESE 5.8 mph 5.8 mph 29 % 0 in
13:41 92.8 °F 54.9 °F 30 in East 8.7 mph 8.7 mph 28 % 0 in
13:46 92.7 °F 54.9 °F 30 in NE 5.8 mph 5.8 mph 28 % 0 in
13:51 92.3 °F 53.4 °F 30 in ENE 8.1 mph 8.1 mph 27 % 0 in
13:56 93.6 °F 55.6 °F 30 in SSE 5.8 mph 5.8 mph 28 % 0 in
14:01 93.7 °F 55.8 °F 30 in SE 5.8 mph 5.8 mph 28 % 0 in
14:06 92.8 °F 56.8 °F 30 in ESE 10.2 mph 10.2 mph 30 % 0 in
14:11 91.9 °F 57.9 °F 30 in ESE 10.4 mph 10.4 mph 32 % 0 in
14:16 92.5 °F 58.3 °F 30 in SE 8.1 mph 8.1 mph 32 % 0 in
14:21 92.8 °F 58.6 °F 30 in ENE 11.5 mph 11.5 mph 32 % 0 in
14:26 91.2 °F 58.1 °F 30 in NE 10.4 mph 10.4 mph 33 % 0 in
14:31 90.9 °F 57.7 °F 30 in ESE 8.1 mph 8.1 mph 33 % 0 in
14:36 90.1 °F 57.2 °F 30 in South 6.9 mph 6.9 mph 33 % 0 in
14:41 89.6 °F 56.7 °F 30 in ESE 12.7 mph 12.7 mph 33 % 0 in
14:46 89.4 °F 57.4 °F 30 in SE 8.1 mph 8.1 mph 34 % 0 in
14:51 88.9 °F 56.8 °F 30 in SE 12.7 mph 12.7 mph 34 % 0 in
14:56 88.7 °F 56.7 °F 30 in East 9.2 mph 9.2 mph 34 % 0 in
15:01 88.7 °F 57.6 °F 30 in East 12.7 mph 12.7 mph 35 % 0 in
15:06 89.4 °F 58.3 °F 30 in East 7.6 mph 7.6 mph 35 % 0 in
15:11 89.1 °F 57.7 °F 30 in ESE 10.4 mph 10.4 mph 35 % 0 in
15:16 89.2 °F 57.9 °F 30 in ESE 8.1 mph 8.1 mph 35 % 0 in
15:21 89.1 °F 57.7 °F 30 in ESE 7.4 mph 7.4 mph 35 % 0 in
15:26 88.7 °F 58.3 °F 30 in East 9.2 mph 9.2 mph 36 % 0 in
15:31 88.7 °F 58.3 °F 30 in NE 9.2 mph 9.2 mph 36 % 0 in
15:36 87.8 °F 58.3 °F 30 in ESE 9.4 mph 9.4 mph 37 % 0 in
15:41 87.1 °F 59.2 °F 30 in ENE 9.8 mph 9.8 mph 39 % 0 in
15:46 86.7 °F 59.5 °F 30 in ESE 10 mph 10 mph 40 % 0 in
15:51 86.2 °F 59.7 °F 30 in East 10.4 mph 10.4 mph 41 % 0 in
15:56 86.2 °F 59.7 °F 30 in ESE 11.5 mph 11.5 mph 41 % 0 in
16:01 85.8 °F 60.1 °F 30 in East 8.1 mph 8.1 mph 42 % 0 in
16:06 85.1 °F 60.1 °F 30 in SE 11.5 mph 11.5 mph 43 % 0 in
16:11 85.3 °F 60.3 °F 30 in ESE 10.4 mph 10.4 mph 43 % 0 in
16:16 84.7 °F 59.7 °F 30 in East 9.2 mph 9.2 mph 43 % 0 in
16:21 84.9 °F 60.6 °F 30 in ESE 10.4 mph 10.4 mph 44 % 0 in
16:26 85.3 °F 61 °F 30 in East 8.1 mph 8.1 mph 44 % 0 in
16:31 85.1 °F 60.1 °F 30 in ENE 8.1 mph 8.1 mph 43 % 0 in
16:36 85.1 °F 60.1 °F 30 in SE 9.2 mph 9.2 mph 43 % 0 in
16:41 85.1 °F 60.1 °F 30 in SE 6.9 mph 6.9 mph 43 % 0 in
16:46 85.3 °F 59.5 °F 30 in ESE 8.1 mph 8.1 mph 42 % 0 in
16:51 85.1 °F 59.4 °F 30 in ESE 6.9 mph 6.9 mph 42 % 0 in
16:56 85.1 °F 58.1 °F 30 in ESE 9.2 mph 9.2 mph 40 % 0 in
17:01 84.9 °F 57.9 °F 30 in ESE 6.9 mph 6.9 mph 40 % 0 in
17:06 85.1 °F 58.1 °F 30 in East 5.4 mph 5.4 mph 40 % 0 in
17:11 84.7 °F 57.7 °F 30 in ENE 6 mph 6 mph 40 % 0 in
17:16 84.7 °F 57.7 °F 30 in East 5.9 mph 5.9 mph 40 % 0 in
17:21 84.7 °F 57 °F 30 in ESE 6.9 mph 6.9 mph 39 % 0 in
17:26 84.6 °F 57.6 °F 30 in ENE 6.9 mph 6.9 mph 40 % 0 in
17:31 84.6 °F 57.6 °F 30 in ENE 4.6 mph 4.6 mph 40 % 0 in
17:36 84.4 °F 56.7 °F 30 in ENE 9.2 mph 9.2 mph 39 % 0 in
17:41 84 °F 57.7 °F 30 in NE 5.8 mph 5.8 mph 41 % 0 in
17:46 84 °F 58.5 °F 30 in ESE 4.6 mph 4.6 mph 42 % 0 in
17:51 84 °F 59.2 °F 30 in ESE 6.9 mph 6.9 mph 43 % 0 in
17:56 83.8 °F 59.5 °F 30 in ESE 4.6 mph 4.6 mph 44 % 0 in
18:01 84 °F 59.7 °F 30 in NNE 5.8 mph 5.8 mph 44 % 0 in
18:06 83.5 °F 59.9 °F 30 in East 8.1 mph 8.1 mph 45 % 0 in
18:11 83.5 °F 59.9 °F 30 in SSE 7.4 mph 7.4 mph 45 % 0 in
18:16 84 °F 59.7 °F 30 in South 5.8 mph 5.8 mph 44 % 0 in
18:21 84.4 °F 59.4 °F 30 in South 3.5 mph 3.5 mph 43 % 0 in
18:26 84.4 °F 59.4 °F 30 in SW 4.6 mph 4.6 mph 43 % 0 in
18:31 84 °F 59.7 °F 30 in WSW 8.1 mph 8.1 mph 44 % 0 in
18:36 83.7 °F 60.1 °F 30 in South 8.1 mph 8.1 mph 45 % 0 in
18:41 83.1 °F 59.5 °F 30 in SW 9.2 mph 9.2 mph 45 % 0 in
18:46 82.9 °F 60.1 °F 30 in SW 6.9 mph 6.9 mph 46 % 0 in
18:51 82.9 °F 59.4 °F 30 in WSW 4.6 mph 4.6 mph 45 % 0 in
18:56 82.8 °F 59.4 °F 30 in SW 6.4 mph 6.4 mph 45 % 0 in
19:01 82.6 °F 58.5 °F 30 in SSW 9.2 mph 9.2 mph 44 % 0 in
19:06 82.8 °F 58.6 °F 30 in SW 6.9 mph 6.9 mph 44 % 0 in
19:11 82.9 °F 58.1 °F 30 in WSW 4.6 mph 4.6 mph 43 % 0 in
19:15 75.6 °F 63.9 °F 30 in NNE 3 mph 4 mph 67 % 0 in
19:16 83.5 °F 57.9 °F 30 in SW 3.5 mph 3.5 mph 42 % 0 in
19:21 83.7 °F 57.6 °F 30 in South 5.8 mph 5.8 mph 41 % 0 in
19:25 75.2 °F 63.5 °F 30 in NNE 1 mph 3 mph 67 % 0 in
19:26 83.8 °F 57.6 °F 30 in SW 5.8 mph 5.8 mph 41 % 0 in
19:31 83.5 °F 56.7 °F 30 in SSW 5.8 mph 5.8 mph 40 % 0 in
19:35 75 °F 64.2 °F 30 in NE 1 mph 2 mph 69 % 0 in
19:36 83.3 °F 56.5 °F 30 in SSW 4.6 mph 4.6 mph 40 % 0 in
19:41 83.3 °F 57 °F 30 in SW 2.9 mph 2.9 mph 41 % 0 in
19:45 74.8 °F 64.4 °F 30 in East 1 mph 2 mph 70 % 0 in
19:46 82.9 °F 56.8 °F 30 in SW 3.5 mph 3.5 mph 41 % 0 in
19:51 82.9 °F 56.8 °F 30 in SSW 2.3 mph 2.3 mph 41 % 0 in
19:55 74.5 °F 64 °F 30 in Calm   1 mph 70 % 0 in
19:56 82.8 °F 56.7 °F 30 in South 1.4 mph 1.4 mph 41 % 0 in
20:01 82.6 °F 56.5 °F 30 in Calm     41 % 0 in
20:05 74.1 °F 63.7 °F 30 in Calm   1 mph 70 % 0 in
20:06 82.6 °F 56.5 °F 30 in ENE 2.3 mph 2.3 mph 41 % 0 in
20:11 82.4 °F 56.3 °F 30 in ENE 2.3 mph 2.3 mph 41 % 0 in
20:15 73.9 °F 63.5 °F 30 in NW 2 mph 3 mph 70 % 0 in
20:16 82.2 °F 56.1 °F 30 in ENE 4.7 mph 4.7 mph 41 % 0 in
20:21 82 °F 57.4 °F 30 in ESE 5.4 mph 5.4 mph 43 % 0 in
20:25 73.8 °F 63.9 °F 30 in NNE 3 mph 3 mph 71 % 0 in
20:26 81.7 °F 58.8 °F 30 in ENE 4.9 mph 4.9 mph 46 % 0 in
20:31 81.1 °F 60.3 °F 30 in ESE 5.8 mph 5.8 mph 49 % 0 in
20:35 73.4 °F 63.3 °F 30 in NNE 2 mph 4 mph 71 % 0 in
20:36 80.8 °F 61 °F 30 in ENE 4.6 mph 4.6 mph 51 % 0 in
20:41 80.8 °F 61 °F 30 in North 4.7 mph 4.7 mph 51 % 0 in
20:42 80.8 °F 61 °F 30 in ENE 4.6 mph 4.6 mph 51 % 0 in
20:45 73.2 °F 63.1 °F 30 in NNE 1 mph 2 mph 71 % 0 in
20:47 80.8 °F 61.5 °F 30 in SE 4.3 mph 4.3 mph 52 % 0 in
20:52 80.4 °F 62.8 °F 30 in East 5.8 mph 5.8 mph 55 % 0 in
20:55 72.9 °F 63.3 °F 30 in Calm   2 mph 72 % 0 in
20:57 80.2 °F 62.1 °F 30 in ESE 2.3 mph 2.3 mph 54 % 0 in
21:02 79.9 °F 62.8 °F 30 in East 3.5 mph 3.5 mph 56 % 0 in
21:07 79.7 °F 62.1 °F 30 in East 3.1 mph 3.1 mph 55 % 0 in
21:12 79.7 °F 63.1 °F 30 in ESE 3.5 mph 3.5 mph 57 % 0 in
21:15 72.5 °F 63 °F 30 in Calm   1 mph 72 % 0 in
21:17 79.5 °F 63 °F 30 in ESE 3.5 mph 3.5 mph 57 % 0 in
21:22 79.3 °F 62.2 °F 30 in ENE 2.6 mph 2.6 mph 56 % 0 in
21:25 72.1 °F 62.6 °F 30 in Calm     72 % 0 in
21:27 79.2 °F 62.6 °F 30 in NNE 2.3 mph 2.3 mph 57 % 0 in
21:32 79.2 °F 62.6 °F 30 in ENE 1.2 mph 1.2 mph 57 % 0 in
21:37 79 °F 62.4 °F 30 in ENE 2.3 mph   57 % 0 in
21:38 79 °F 62.4 °F 30 in East 2.3 mph 2.3 mph 57 % 0 in
21:43 79 °F 62.4 °F 30 in NNE 3.5 mph 3.5 mph 57 % 0 in
21:45 72 °F 62.8 °F 30 in Calm   2 mph 73 % 0 in
21:48 78.8 °F 62.2 °F 30 in ESE 3.5 mph 3.5 mph 57 % 0 in
21:53 78.8 °F 62.8 °F 30 in ENE 2.4 mph 2.4 mph 58 % 0 in
21:55 72 °F 62.8 °F 30 in NNE 1 mph 2 mph 73 % 0 in
21:58 78.6 °F 62.6 °F 30 in SSE 2.3 mph 2.3 mph 58 % 0 in
22:03 78.4 °F 63 °F 30 in ESE 3.5 mph 3.5 mph 59 % 0 in
22:05 71.8 °F 62.8 °F 30 in NNW 2 mph 2 mph 73 % 0 in
22:08 78.3 °F 63.7 °F 30 in ESE 5.4 mph 5.4 mph 61 % 0 in
22:13 78.1 °F 63.1 °F 30 in East 3.3 mph 3.3 mph 60 % 0 in
22:15 71.4 °F 62.8 °F 30 in West 1 mph 2 mph 74 % 0 in
22:18 77.7 °F 62.8 °F 30 in ENE 3.6 mph 3.6 mph 60 % 0 in
22:23 77.7 °F 63.7 °F 30 in ESE 3.5 mph 3.5 mph 62 % 0 in
22:25 71.4 °F 63.1 °F 30 in Calm   1 mph 75 % 0 in
22:28 77.5 °F 63.5 °F 30 in ENE 3.5 mph 3.5 mph 62 % 0 in
22:33 77.4 °F 63.3 °F 30 in East 2.3 mph 2.3 mph 62 % 0 in
22:35 71.6 °F 63 °F 30 in NW 2 mph 2 mph 74 % 0 in
22:38 77.2 °F 63.1 °F 30 in ENE 2.3 mph 2.3 mph 62 % 0 in
22:43 77 °F 63.3 °F 30 in ESE 3.5 mph 3.5 mph 63 % 0 in
22:45 71.2 °F 63 °F 30 in Calm   2 mph 75 % 0 in
22:48 77.2 °F 63.7 °F 30 in NNE 2.3 mph 2.4 mph 63 % 0 in
22:53 77.2 °F 63.1 °F 30 in NNE 3.5 mph 3.5 mph 62 % 0 in
22:55 70.9 °F 62.6 °F 30 in SE 1 mph 2 mph 75 % 0 in
22:58 77.2 °F 63.7 °F 30 in NNE 3.5 mph 3.5 mph 63 % 0 in
22:59 77.2 °F 63.1 °F 30 in NNE 3.5 mph 3.5 mph 62 % 0 in
23:04 77.2 °F 63.7 °F 30 in NE 2.3 mph 2.3 mph 63 % 0 in
23:05 70.9 °F 62.6 °F 30 in Calm   1 mph 75 % 0 in
23:09 77 °F 63.3 °F 30 in NNW 1.2 mph 1.2 mph 63 % 0 in
23:14 77 °F 63.3 °F 30 in Calm     63 % 0 in
23:15 70.9 °F 62.6 °F 30 in Calm   1 mph 75 % 0 in
23:19 76.8 °F 63.7 °F 30 in NE 3.5 mph 3.5 mph 64 % 0 in
23:24 76.6 °F 63.5 °F 30 in NE 4.6 mph 4.6 mph 64 % 0 in
23:25 71.1 °F 62.1 °F 30 in NNW 2 mph 3 mph 73 % 0 in
23:29 76.5 °F 63.3 °F 30 in ENE 3.5 mph 3.5 mph 64 % 0 in
23:34 76.3 °F 63.1 °F 30 in NE 2.3 mph 2.3 mph 64 % 0 in
23:35 71.1 °F 61.5 °F 30 in NNE 1 mph 2 mph 72 % 0 in
23:39 76.1 °F 63.5 °F 30 in NNE 5.8 mph 5.8 mph 65 % 0 in
23:44 75.9 °F 63.7 °F 30 in NNE 5.8 mph 5.8 mph 66 % 0 in
23:45 71.2 °F 60.4 °F 30 in ENE 2 mph 2 mph 69 % 0 in
23:49 75.9 °F 63.7 °F 30 in NNE 3.5 mph 3.5 mph 66 % 0 in
23:54 75.7 °F 63.7 °F 30 in NNE 1.4 mph   66 % 0 in
23:55 70.7 °F 59.5 °F 30 in NE 1 mph 3 mph 68 % 0 in
23:59 75.7 °F 63.7 °F 30 in ENE 2.3 mph 2.3 mph 66 % 0 in
Meteo Sesrovires
Elogis d' Weather Underground - 3.75 mb

Guio original per  Jim McMurry - jmcmurry@mwt.net Adaptat per a la plantilla per  Wim van der Kuil - Leuven-Template.eu

Trobareu la nostra informacio del temps tambe a:

Weather Underground

AWEKAS